sensor_id;sensor_type;location;lat;lon;timestamp;pressure;altitude;pressure_sealevel;temperature;humidity
21588;BME280;10956;48.878;13.316;2023-04-02T00:01:52;93273.72;;;6.96;100.00
21588;BME280;10956;48.878;13.316;2023-04-02T00:04:22;93272.41;;;6.93;100.00
21588;BME280;10956;48.878;13.316;2023-04-02T00:07:17;93274.53;;;6.81;100.00
21588;BME280;10956;48.878;13.316;2023-04-02T00:09:40;93276.91;;;6.72;100.00
21588;BME280;10956;48.878;13.316;2023-04-02T00:12:15;93278.47;;;6.78;100.00
21588;BME280;10956;48.878;13.316;2023-04-02T00:14:47;93281.59;;;6.86;100.00
21588;BME280;10956;48.878;13.316;2023-04-02T00:17:14;93281.09;;;6.68;100.00
21588;BME280;10956;48.878;13.316;2023-04-02T00:20:03;93287.38;;;6.67;100.00
21588;BME280;10956;48.878;13.316;2023-04-02T00:22:31;93285.28;;;6.64;100.00
21588;BME280;10956;48.878;13.316;2023-04-02T00:25:02;93283.19;;;6.66;100.00
21588;BME280;10956;48.878;13.316;2023-04-02T00:27:31;93292.09;;;6.65;100.00
21588;BME280;10956;48.878;13.316;2023-04-02T00:29:57;93293.66;;;6.66;100.00
21588;BME280;10956;48.878;13.316;2023-04-02T00:32:30;93284.75;;;6.72;100.00
21588;BME280;10956;48.878;13.316;2023-04-02T00:34:56;93297.59;;;6.69;100.00
21588;BME280;10956;48.878;13.316;2023-04-02T00:37:24;93298.38;;;6.69;100.00
21588;BME280;10956;48.878;13.316;2023-04-02T00:40:06;93303.88;;;6.73;100.00
21588;BME280;10956;48.878;13.316;2023-04-02T00:42:34;93300.47;;;6.72;100.00
21588;BME280;10956;48.878;13.316;2023-04-02T00:45:06;93294.97;;;6.79;100.00
21588;BME280;10956;48.878;13.316;2023-04-02T00:47:36;93293.66;;;6.76;100.00
21588;BME280;10956;48.878;13.316;2023-04-02T00:52:40;93296.28;;;6.71;100.00
21588;BME280;10956;48.878;13.316;2023-04-02T00:55:12;93297.31;;;6.75;100.00
21588;BME280;10956;48.878;13.316;2023-04-02T00:57:43;93290.53;;;6.74;100.00
21588;BME280;10956;48.878;13.316;2023-04-02T01:05:37;93289.72;;;6.74;100.00
21588;BME280;10956;48.878;13.316;2023-04-02T01:08:05;93290.00;;;6.67;100.00
21588;BME280;10956;48.878;13.316;2023-04-02T01:15:40;93298.63;;;6.63;100.00
21588;BME280;10956;48.878;13.316;2023-04-02T01:20:52;93303.09;;;6.62;100.00
21588;BME280;10956;48.878;13.316;2023-04-02T01:23:29;93297.34;;;6.65;100.00
21588;BME280;10956;48.878;13.316;2023-04-02T01:29:11;93291.56;;;6.58;100.00
21588;BME280;10956;48.878;13.316;2023-04-02T01:31:38;93292.09;;;6.55;100.00
21588;BME280;10956;48.878;13.316;2023-04-02T01:34:07;93295.25;;;6.57;100.00
21588;BME280;10956;48.878;13.316;2023-04-02T01:36:52;93296.03;;;6.47;100.00
21588;BME280;10956;48.878;13.316;2023-04-02T01:42:31;93292.88;;;6.51;100.00
21588;BME280;10956;48.878;13.316;2023-04-02T01:45:12;93306.50;;;6.58;100.00
21588;BME280;10956;48.878;13.316;2023-04-02T01:47:39;93303.88;;;6.53;100.00
21588;BME280;10956;48.878;13.316;2023-04-02T01:52:57;93313.03;;;6.65;100.00
21588;BME280;10956;48.878;13.316;2023-04-02T01:55:31;93312.25;;;6.60;100.00
21588;BME280;10956;48.878;13.316;2023-04-02T01:57:59;93317.50;;;6.65;100.00
21588;BME280;10956;48.878;13.316;2023-04-02T02:00:26;93313.56;;;6.62;100.00
21588;BME280;10956;48.878;13.316;2023-04-02T02:02:54;93320.91;;;6.55;100.00
21588;BME280;10956;48.878;13.316;2023-04-02T02:05:21;93317.50;;;6.60;100.00
21588;BME280;10956;48.878;13.316;2023-04-02T02:07:48;93325.59;;;6.63;100.00
21588;BME280;10956;48.878;13.316;2023-04-02T02:10:22;93317.22;;;6.61;100.00
21588;BME280;10956;48.878;13.316;2023-04-02T02:12:48;93320.38;;;6.63;100.00
21588;BME280;10956;48.878;13.316;2023-04-02T02:15:16;93329.00;;;6.59;100.00
21588;BME280;10956;48.878;13.316;2023-04-02T02:17:42;93335.03;;;6.54;100.00
21588;BME280;10956;48.878;13.316;2023-04-02T02:20:08;93331.63;;;6.54;100.00
21588;BME280;10956;48.878;13.316;2023-04-02T02:22:55;93343.91;;;6.43;100.00
21588;BME280;10956;48.878;13.316;2023-04-02T02:25:26;93337.09;;;6.42;100.00
21588;BME280;10956;48.878;13.316;2023-04-02T02:27:54;93342.34;;;6.47;100.00
21588;BME280;10956;48.878;13.316;2023-04-02T02:35:36;93342.34;;;6.52;100.00
21588;BME280;10956;48.878;13.316;2023-04-02T02:41:33;93340.25;;;6.59;100.00
21588;BME280;10956;48.878;13.316;2023-04-02T02:44:09;93339.75;;;6.62;100.00
21588;BME280;10956;48.878;13.316;2023-04-02T02:46:48;93342.63;;;6.61;100.00
21588;BME280;10956;48.878;13.316;2023-04-02T02:49:20;93344.97;;;6.52;100.00
21588;BME280;10956;48.878;13.316;2023-04-02T02:51:51;93347.06;;;6.45;100.00
21588;BME280;10956;48.878;13.316;2023-04-02T02:54:18;93351.50;;;6.50;100.00
21588;BME280;10956;48.878;13.316;2023-04-02T02:56:47;93349.69;;;6.45;100.00
21588;BME280;10956;48.878;13.316;2023-04-02T02:59:15;93355.44;;;6.47;100.00
21588;BME280;10956;48.878;13.316;2023-04-02T03:01:42;93358.03;;;6.42;100.00
21588;BME280;10956;48.878;13.316;2023-04-02T03:04:09;93360.13;;;6.45;100.00
21588;BME280;10956;48.878;13.316;2023-04-02T03:06:34;93352.28;;;6.45;100.00
21588;BME280;10956;48.878;13.316;2023-04-02T03:14:33;93364.88;;;6.53;100.00
21588;BME280;10956;48.878;13.316;2023-04-02T03:17:05;93365.38;;;6.55;100.00
21588;BME280;10956;48.878;13.316;2023-04-02T03:22:13;93364.34;;;6.51;100.00
21588;BME280;10956;48.878;13.316;2023-04-02T03:24:48;93368.78;;;6.51;100.00
21588;BME280;10956;48.878;13.316;2023-04-02T03:27:29;93366.69;;;6.58;100.00
21588;BME280;10956;48.878;13.316;2023-04-02T03:32:42;93375.34;;;6.58;100.00
21588;BME280;10956;48.878;13.316;2023-04-02T03:35:18;93377.94;;;6.58;100.00
21588;BME280;10956;48.878;13.316;2023-04-02T03:38:00;93379.53;;;6.54;100.00
21588;BME280;10956;48.878;13.316;2023-04-02T03:40:32;93381.09;;;6.55;100.00
21588;BME280;10956;48.878;13.316;2023-04-02T03:43:19;93392.09;;;6.52;100.00
21588;BME280;10956;48.878;13.316;2023-04-02T03:45:54;93386.31;;;6.55;100.00
21588;BME280;10956;48.878;13.316;2023-04-02T03:48:37;93390.53;;;6.61;100.00
21588;BME280;10956;48.878;13.316;2023-04-02T03:51:05;93390.78;;;6.70;100.00
21588;BME280;10956;48.878;13.316;2023-04-02T03:53:31;93397.34;;;6.72;100.00
21588;BME280;10956;48.878;13.316;2023-04-02T03:55:58;93396.56;;;6.72;100.00
21588;BME280;10956;48.878;13.316;2023-04-02T03:58:35;93396.81;;;6.65;100.00
21588;BME280;10956;48.878;13.316;2023-04-02T04:01:16;93393.66;;;6.63;100.00
21588;BME280;10956;48.878;13.316;2023-04-02T04:03:52;93403.59;;;6.61;100.00
21588;BME280;10956;48.878;13.316;2023-04-02T04:06:45;93405.72;;;6.64;100.00
21588;BME280;10956;48.878;13.316;2023-04-02T04:09:24;93408.31;;;6.64;100.00
21588;BME280;10956;48.878;13.316;2023-04-02T04:11:54;93412.50;;;6.65;100.00
21588;BME280;10956;48.878;13.316;2023-04-02T04:20:30;93412.50;;;6.55;100.00
21588;BME280;10956;48.878;13.316;2023-04-02T04:22:32;93424.03;;;6.59;100.00
21588;BME280;10956;48.878;13.316;2023-04-02T04:25:00;93421.94;;;6.61;100.00
21588;BME280;10956;48.878;13.316;2023-04-02T04:27:34;93424.03;;;6.69;100.00
21588;BME280;10956;48.878;13.316;2023-04-02T04:30:25;93427.97;;;6.67;100.00
21588;BME280;10956;48.878;13.316;2023-04-02T04:32:56;93429.25;;;6.59;100.00
21588;BME280;10956;48.878;13.316;2023-04-02T04:35:33;93433.47;;;6.65;100.00
21588;BME280;10956;48.878;13.316;2023-04-02T04:38:17;93430.84;;;6.60;100.00
21588;BME280;10956;48.878;13.316;2023-04-02T04:41:13;93442.88;;;6.61;100.00
21588;BME280;10956;48.878;13.316;2023-04-02T04:43:58;93439.19;;;6.52;100.00
21588;BME280;10956;48.878;13.316;2023-04-02T04:46:37;93450.19;;;6.59;100.00
21588;BME280;10956;48.878;13.316;2023-04-02T04:49:19;93440.75;;;6.53;100.00
21588;BME280;10956;48.878;13.316;2023-04-02T04:52:07;93456.47;;;6.58;100.00
21588;BME280;10956;48.878;13.316;2023-04-02T04:54:36;93452.84;;;6.64;100.00
21588;BME280;10956;48.878;13.316;2023-04-02T04:57:04;93456.50;;;6.68;100.00
21588;BME280;10956;48.878;13.316;2023-04-02T04:59:33;93461.22;;;6.71;100.00
21588;BME280;10956;48.878;13.316;2023-04-02T05:02:12;93464.88;;;6.70;100.00
21588;BME280;10956;48.878;13.316;2023-04-02T05:04:42;93466.44;;;6.66;100.00
21588;BME280;10956;48.878;13.316;2023-04-02T05:07:21;93471.69;;;6.66;100.00
21588;BME280;10956;48.878;13.316;2023-04-02T05:10:05;93472.72;;;6.60;100.00
21588;BME280;10956;48.878;13.316;2023-04-02T05:12:43;93465.41;;;6.62;100.00
21588;BME280;10956;48.878;13.316;2023-04-02T05:17:46;93473.78;;;6.69;100.00
21588;BME280;10956;48.878;13.316;2023-04-02T05:20:20;93474.31;;;6.71;100.00
21588;BME280;10956;48.878;13.316;2023-04-02T05:25:24;93482.69;;;6.73;100.00
21588;BME280;10956;48.878;13.316;2023-04-02T05:33:20;93488.19;;;6.77;100.00
21588;BME280;10956;48.878;13.316;2023-04-02T05:35:52;93486.13;;;6.79;100.00
21588;BME280;10956;48.878;13.316;2023-04-02T05:38:21;93491.09;;;6.86;100.00
21588;BME280;10956;48.878;13.316;2023-04-02T05:40:57;93490.59;;;6.89;100.00
21588;BME280;10956;48.878;13.316;2023-04-02T05:43:25;93486.91;;;6.90;100.00
21588;BME280;10956;48.878;13.316;2023-04-02T05:45:54;93495.03;;;6.88;100.00
21588;BME280;10956;48.878;13.316;2023-04-02T05:48:26;93497.91;;;6.92;100.00
21588;BME280;10956;48.878;13.316;2023-04-02T05:50:56;93498.19;;;6.90;100.00
21588;BME280;10956;48.878;13.316;2023-04-02T05:53:54;93495.84;;;6.99;100.00
21588;BME280;10956;48.878;13.316;2023-04-02T05:56:28;93497.16;;;7.06;100.00
21588;BME280;10956;48.878;13.316;2023-04-02T06:04:57;93507.66;;;7.27;100.00
21588;BME280;10956;48.878;13.316;2023-04-02T06:07:46;93504.78;;;7.38;100.00
21588;BME280;10956;48.878;13.316;2023-04-02T06:10:22;93510.00;;;7.59;100.00
21588;BME280;10956;48.878;13.316;2023-04-02T06:12:51;93503.19;;;7.78;100.00
21588;BME280;10956;48.878;13.316;2023-04-02T06:15:20;93508.38;;;7.98;100.00
21588;BME280;10956;48.878;13.316;2023-04-02T06:20:17;93516.19;;;8.24;100.00
21588;BME280;10956;48.878;13.316;2023-04-02T06:22:47;93514.06;;;8.31;100.00
21588;BME280;10956;48.878;13.316;2023-04-02T06:25:23;93520.38;;;8.30;100.00
21588;BME280;10956;48.878;13.316;2023-04-02T06:27:53;93520.91;;;8.32;100.00
21588;BME280;10956;48.878;13.316;2023-04-02T06:30:27;93529.31;;;8.39;100.00
21588;BME280;10956;48.878;13.316;2023-04-02T06:32:55;93529.31;;;8.39;100.00
21588;BME280;10956;48.878;13.316;2023-04-02T06:35:20;93535.34;;;8.34;100.00
21588;BME280;10956;48.878;13.316;2023-04-02T06:37:49;93531.38;;;8.32;100.00
21588;BME280;10956;48.878;13.316;2023-04-02T06:43:15;93542.97;;;8.16;100.00
21588;BME280;10956;48.878;13.316;2023-04-02T06:45:45;93539.84;;;8.14;100.00
21588;BME280;10956;48.878;13.316;2023-04-02T06:48:17;93545.06;;;8.19;100.00
21588;BME280;10956;48.878;13.316;2023-04-02T06:50:47;93553.19;;;8.27;100.00
21588;BME280;10956;48.878;13.316;2023-04-02T06:53:25;93553.97;;;8.38;100.00
21588;BME280;10956;48.878;13.316;2023-04-02T06:55:59;93562.09;;;8.47;100.00
21588;BME280;10956;48.878;13.316;2023-04-02T06:58:27;93560.81;;;8.39;100.00
21588;BME280;10956;48.878;13.316;2023-04-02T07:00:53;93557.91;;;8.40;100.00
21588;BME280;10956;48.878;13.316;2023-04-02T07:03:23;93568.44;;;8.35;100.00
21588;BME280;10956;48.878;13.316;2023-04-02T07:05:49;93571.81;;;8.31;100.00
21588;BME280;10956;48.878;13.316;2023-04-02T07:08:14;93580.22;;;8.38;100.00
21588;BME280;10956;48.878;13.316;2023-04-02T07:10:40;93578.56;;;8.67;100.00
21588;BME280;10956;48.878;13.316;2023-04-02T07:13:05;93578.97;;;8.95;100.00
21588;BME280;10956;48.878;13.316;2023-04-02T07:15:31;93579.44;;;9.12;100.00
21588;BME280;10956;48.878;13.316;2023-04-02T07:17:58;93577.78;;;9.21;100.00
21588;BME280;10956;48.878;13.316;2023-04-02T07:20:29;93594.34;;;9.22;100.00
21588;BME280;10956;48.878;13.316;2023-04-02T07:22:56;93588.84;;;9.18;100.00
21588;BME280;10956;48.878;13.316;2023-04-02T07:25:22;93590.91;;;9.26;100.00
21588;BME280;10956;48.878;13.316;2023-04-02T07:27:49;93590.44;;;9.19;100.00
21588;BME280;10956;48.878;13.316;2023-04-02T07:30:15;93595.72;;;9.09;100.00
21588;BME280;10956;48.878;13.316;2023-04-02T07:32:40;93593.63;;;9.11;100.00
21588;BME280;10956;48.878;13.316;2023-04-02T07:35:06;93601.81;;;8.99;100.00
21588;BME280;10956;48.878;13.316;2023-04-02T07:37:32;93597.94;;;8.87;100.00
21588;BME280;10956;48.878;13.316;2023-04-02T07:39:57;93605.88;;;8.71;100.00
21588;BME280;10956;48.878;13.316;2023-04-02T07:42:22;93604.03;;;8.72;100.00
21588;BME280;10956;48.878;13.316;2023-04-02T07:44:48;93610.09;;;8.67;100.00
21588;BME280;10956;48.878;13.316;2023-04-02T07:47:13;93614.84;;;8.55;100.00
21588;BME280;10956;48.878;13.316;2023-04-02T07:49:39;93619.56;;;8.58;100.00
21588;BME280;10956;48.878;13.316;2023-04-02T07:52:04;93618.50;;;8.69;100.00
21588;BME280;10956;48.878;13.316;2023-04-02T07:54:30;93629.47;;;8.87;100.00
21588;BME280;10956;48.878;13.316;2023-04-02T07:56:55;93623.06;;;9.13;100.00
21588;BME280;10956;48.878;13.316;2023-04-02T07:59:21;93624.56;;;9.24;100.00
21588;BME280;10956;48.878;13.316;2023-04-02T08:01:46;93629.25;;;9.37;100.00
21588;BME280;10956;48.878;13.316;2023-04-02T08:04:20;93630.84;;;9.33;100.00
21588;BME280;10956;48.878;13.316;2023-04-02T08:06:46;93627.19;;;9.29;100.00
21588;BME280;10956;48.878;13.316;2023-04-02T08:09:13;93633.53;;;9.18;100.00
21588;BME280;10956;48.878;13.316;2023-04-02T08:11:39;93645.72;;;8.99;100.00
21588;BME280;10956;48.878;13.316;2023-04-02T08:14:09;93647.34;;;8.85;100.00
21588;BME280;10956;48.878;13.316;2023-04-02T08:16:49;93648.38;;;8.89;100.00
21588;BME280;10956;48.878;13.316;2023-04-02T08:19:14;93653.13;;;8.87;100.00
21588;BME280;10956;48.878;13.316;2023-04-02T08:21:40;93650.97;;;8.99;100.00
21588;BME280;10956;48.878;13.316;2023-04-02T08:24:06;93653.56;;;9.04;100.00
21588;BME280;10956;48.878;13.316;2023-04-02T08:26:31;93657.28;;;8.98;100.00
21588;BME280;10956;48.878;13.316;2023-04-02T08:28:57;93658.84;;;9.04;100.00
21588;BME280;10956;48.878;13.316;2023-04-02T08:31:22;93662.50;;;9.08;100.00
21588;BME280;10956;48.878;13.316;2023-04-02T08:33:48;93663.53;;;9.12;100.00
21588;BME280;10956;48.878;13.316;2023-04-02T08:36:17;93664.09;;;9.04;100.00
21588;BME280;10956;48.878;13.316;2023-04-02T08:38:43;93666.69;;;9.14;100.00
21588;BME280;10956;48.878;13.316;2023-04-02T08:41:19;93670.63;;;9.17;100.00
21588;BME280;10956;48.878;13.316;2023-04-02T08:46:32;93667.66;;;9.28;100.00
21588;BME280;10956;48.878;13.316;2023-04-02T08:49:02;93668.41;;;9.39;100.00
21588;BME280;10956;48.878;13.316;2023-04-02T08:51:33;93677.06;;;9.45;100.00
21588;BME280;10956;48.878;13.316;2023-04-02T08:54:25;93677.59;;;9.42;100.00
21588;BME280;10956;48.878;13.316;2023-04-02T08:59:39;93680.28;;;9.31;100.00
21588;BME280;10956;48.878;13.316;2023-04-02T09:04:50;93688.97;;;9.27;100.00
21588;BME280;10956;48.878;13.316;2023-04-02T09:07:16;93684.78;;;9.26;100.00
21588;BME280;10956;48.878;13.316;2023-04-02T09:09:43;93692.19;;;9.14;100.00
21588;BME280;10956;48.878;13.316;2023-04-02T09:12:30;93694.28;;;9.12;100.00
21588;BME280;10956;48.878;13.316;2023-04-02T09:17:40;93703.97;;;9.21;100.00
21588;BME280;10956;48.878;13.316;2023-04-02T09:20:19;93699.22;;;9.28;100.00
21588;BME280;10956;48.878;13.316;2023-04-02T09:22:47;93698.53;;;9.62;100.00
21588;BME280;10956;48.878;13.316;2023-04-02T09:25:24;93709.06;;;10.06;100.00
21588;BME280;10956;48.878;13.316;2023-04-02T09:28:01;93712.94;;;10.53;100.00
21588;BME280;10956;48.878;13.316;2023-04-02T09:33:39;93716.19;;;11.03;100.00
21588;BME280;10956;48.878;13.316;2023-04-02T09:36:04;93708.22;;;11.08;100.00
21588;BME280;10956;48.878;13.316;2023-04-02T09:38:30;93716.88;;;11.13;100.00
21588;BME280;10956;48.878;13.316;2023-04-02T09:41:05;93719.44;;;11.18;100.00
21588;BME280;10956;48.878;13.316;2023-04-02T09:43:33;93723.72;;;11.14;100.00
21588;BME280;10956;48.878;13.316;2023-04-02T09:48:43;93723.00;;;10.80;100.00
21588;BME280;10956;48.878;13.316;2023-04-02T09:51:20;93731.16;;;10.49;100.00
21588;BME280;10956;48.878;13.316;2023-04-02T09:56:34;93733.28;;;10.47;100.00
21588;BME280;10956;48.878;13.316;2023-04-02T10:01:39;93740.38;;;10.52;100.00
21588;BME280;10956;48.878;13.316;2023-04-02T10:04:41;93731.81;;;10.65;100.00
21588;BME280;10956;48.878;13.316;2023-04-02T10:10:20;93746.66;;;10.85;100.00
21588;BME280;10956;48.878;13.316;2023-04-02T10:12:54;93745.66;;;10.81;100.00
21588;BME280;10956;48.878;13.316;2023-04-02T10:15:28;93745.75;;;10.71;100.00
21588;BME280;10956;48.878;13.316;2023-04-02T10:20:53;93748.72;;;10.59;100.00
21588;BME280;10956;48.878;13.316;2023-04-02T10:23:23;93754.09;;;10.49;100.00
21588;BME280;10956;48.878;13.316;2023-04-02T10:26:00;93755.72;;;10.40;100.00
21588;BME280;10956;48.878;13.316;2023-04-02T10:28:53;93765.91;;;10.51;100.00
21588;BME280;10956;48.878;13.316;2023-04-02T10:31:26;93769.97;;;10.73;100.00
21588;BME280;10956;48.878;13.316;2023-04-02T10:34:03;93773.25;;;10.88;100.00
21588;BME280;10956;48.878;13.316;2023-04-02T10:37:00;93768.22;;;10.92;100.00
21588;BME280;10956;48.878;13.316;2023-04-02T10:39:58;93777.75;;;11.41;100.00
21588;BME280;10956;48.878;13.316;2023-04-02T10:48:02;93777.41;;;11.71;100.00
21588;BME280;10956;48.878;13.316;2023-04-02T10:53:17;93788.03;;;11.66;100.00
21588;BME280;10956;48.878;13.316;2023-04-02T10:55:49;93787.69;;;11.49;100.00
21588;BME280;10956;48.878;13.316;2023-04-02T10:58:25;93808.00;;;11.24;100.00
21588;BME280;10956;48.878;13.316;2023-04-02T11:00:55;93808.34;;;10.84;100.00
21588;BME280;10956;48.878;13.316;2023-04-02T11:03:30;93811.69;;;10.16;100.00
21588;BME280;10956;48.878;13.316;2023-04-02T11:05:59;93808.31;;;10.06;100.00
21588;BME280;10956;48.878;13.316;2023-04-02T11:10:58;93824.19;;;9.85;100.00
21588;BME280;10956;48.878;13.316;2023-04-02T11:13:34;93824.19;;;9.85;100.00
21588;BME280;10956;48.878;13.316;2023-04-02T11:16:01;93826.34;;;9.73;100.00
21588;BME280;10956;48.878;13.316;2023-04-02T11:18:30;93831.56;;;9.83;100.00
21588;BME280;10956;48.878;13.316;2023-04-02T11:21:06;93840.06;;;9.65;100.00
21588;BME280;10956;48.878;13.316;2023-04-02T11:23:55;93835.38;;;9.42;100.00
21588;BME280;10956;48.878;13.316;2023-04-02T11:26:46;93847.47;;;9.48;100.00
21588;BME280;10956;48.878;13.316;2023-04-02T11:29:19;93857.50;;;9.35;100.00
21588;BME280;10956;48.878;13.316;2023-04-02T11:31:45;93859.63;;;9.13;100.00
21588;BME280;10956;48.878;13.316;2023-04-02T11:37:32;93870.13;;;8.72;100.00
21588;BME280;10956;48.878;13.316;2023-04-02T11:39:56;93869.53;;;8.35;100.00
21588;BME280;10956;48.878;13.316;2023-04-02T11:42:31;93875.22;;;8.12;100.00
21588;BME280;10956;48.878;13.316;2023-04-02T11:45:00;93874.63;;;7.94;100.00
21588;BME280;10956;48.878;13.316;2023-04-02T11:50:45;93886.09;;;7.73;100.00
21588;BME280;10956;48.878;13.316;2023-04-02T11:56:05;93892.88;;;7.69;100.00
21588;BME280;10956;48.878;13.316;2023-04-02T11:58:53;93893.22;;;7.83;100.00
21588;BME280;10956;48.878;13.316;2023-04-02T12:01:33;93898.75;;;7.86;100.00
21588;BME280;10956;48.878;13.316;2023-04-02T12:10:05;93898.97;;;8.37;100.00
21588;BME280;10956;48.878;13.316;2023-04-02T12:12:40;93902.19;;;8.69;100.00
21588;BME280;10956;48.878;13.316;2023-04-02T12:15:31;93907.47;;;9.00;100.00
21588;BME280;10956;48.878;13.316;2023-04-02T12:18:19;93909.03;;;9.31;100.00
21588;BME280;10956;48.878;13.316;2023-04-02T12:20:51;93909.28;;;9.45;100.00
21588;BME280;10956;48.878;13.316;2023-04-02T12:23:20;93916.88;;;9.62;100.00
21588;BME280;10956;48.878;13.316;2023-04-02T12:25:58;93918.97;;;9.75;100.00
21588;BME280;10956;48.878;13.316;2023-04-02T12:28:25;93918.44;;;9.68;100.00
21588;BME280;10956;48.878;13.316;2023-04-02T12:31:04;93920.03;;;9.69;100.00
21588;BME280;10956;48.878;13.316;2023-04-02T12:33:37;93920.00;;;9.79;100.00
21588;BME280;10956;48.878;13.316;2023-04-02T12:36:25;93920.28;;;9.78;100.00
21588;BME280;10956;48.878;13.316;2023-04-02T12:38:52;93936.84;;;9.88;100.00
21588;BME280;10956;48.878;13.316;2023-04-02T12:44:03;93930.59;;;10.44;97.68
21588;BME280;10956;48.878;13.316;2023-04-02T12:46:30;93928.03;;;10.83;95.41
21588;BME280;10956;48.878;13.316;2023-04-02T12:51:50;93920.72;;;12.01;93.33
21588;BME280;10956;48.878;13.316;2023-04-02T12:54:17;93926.22;;;12.28;92.69
21588;BME280;10956;48.878;13.316;2023-04-02T12:56:45;93926.56;;;11.98;87.99
21588;BME280;10956;48.878;13.316;2023-04-02T12:59:26;93931.53;;;11.75;90.22
21588;BME280;10956;48.878;13.316;2023-04-02T13:01:58;93931.53;;;11.46;88.81
21588;BME280;10956;48.878;13.316;2023-04-02T13:04:24;93936.31;;;11.05;89.79
21588;BME280;10956;48.878;13.316;2023-04-02T13:06:51;93935.50;;;10.65;88.44
21588;BME280;10956;48.878;13.316;2023-04-02T13:09:29;93960.88;;;10.46;91.38
21588;BME280;10956;48.878;13.316;2023-04-02T13:11:55;93949.81;;;10.49;91.31
21588;BME280;10956;48.878;13.316;2023-04-02T13:14:23;93962.97;;;10.54;91.21
21588;BME280;10956;48.878;13.316;2023-04-02T13:16:48;93967.81;;;10.22;90.53
21588;BME280;10956;48.878;13.316;2023-04-02T13:19:29;93966.84;;;9.77;91.14
21588;BME280;10956;48.878;13.316;2023-04-02T13:21:56;93971.63;;;9.50;94.01
21588;BME280;10956;48.878;13.316;2023-04-02T13:24:27;93980.03;;;9.36;95.96
21588;BME280;10956;48.878;13.316;2023-04-02T13:26:55;93978.44;;;9.35;94.94
21588;BME280;10956;48.878;13.316;2023-04-02T13:29:27;93988.44;;;9.38;94.15
21588;BME280;10956;48.878;13.316;2023-04-02T13:31:55;93975.81;;;9.20;94.27
21588;BME280;10956;48.878;13.316;2023-04-02T13:34:20;93985.56;;;9.25;94.68
21588;BME280;10956;48.878;13.316;2023-04-02T13:36:46;93996.59;;;9.17;95.66
21588;BME280;10956;48.878;13.316;2023-04-02T13:39:12;94002.59;;;8.97;95.61
21588;BME280;10956;48.878;13.316;2023-04-02T13:41:48;93996.75;;;8.69;96.62
21588;BME280;10956;48.878;13.316;2023-04-02T13:44:22;94003.28;;;8.57;99.65
21588;BME280;10956;48.878;13.316;2023-04-02T13:46:49;94004.44;;;8.29;100.00
21588;BME280;10956;48.878;13.316;2023-04-02T13:49:15;94016.94;;;8.12;100.00
21588;BME280;10956;48.878;13.316;2023-04-02T13:51:54;94009.91;;;8.22;100.00
21588;BME280;10956;48.878;13.316;2023-04-02T13:54:30;94015.00;;;8.34;100.00
21588;BME280;10956;48.878;13.316;2023-04-02T13:56:59;94012.38;;;8.39;100.00
21588;BME280;10956;48.878;13.316;2023-04-02T13:59:25;94023.97;;;8.43;100.00
21588;BME280;10956;48.878;13.316;2023-04-02T14:01:54;94035.84;;;8.14;100.00
21588;BME280;10956;48.878;13.316;2023-04-02T14:04:30;94034.16;;;7.92;100.00
21588;BME280;10956;48.878;13.316;2023-04-02T14:07:57;94043.84;;;7.55;100.00
21588;BME280;10956;48.878;13.316;2023-04-02T14:24:12;94053.69;;;6.89;100.00
21588;BME280;10956;48.878;13.316;2023-04-02T14:32:15;94056.41;;;7.85;100.00
21588;BME280;10956;48.878;13.316;2023-04-02T14:37:35;94074.66;;;7.69;100.00
21588;BME280;10956;48.878;13.316;2023-04-02T14:40:46;94066.34;;;7.51;100.00
21588;BME280;10956;48.878;13.316;2023-04-02T14:46:08;94083.13;;;6.96;100.00
21588;BME280;10956;48.878;13.316;2023-04-02T14:48:56;94094.22;;;6.59;100.00
21588;BME280;10956;48.878;13.316;2023-04-02T14:51:40;94093.00;;;6.45;100.00
21588;BME280;10956;48.878;13.316;2023-04-02T14:54:13;94082.34;;;6.52;100.00
21588;BME280;10956;48.878;13.316;2023-04-02T14:56:51;94092.38;;;6.38;100.00
21588;BME280;10956;48.878;13.316;2023-04-02T15:02:26;94095.88;;;6.27;100.00
21588;BME280;10956;48.878;13.316;2023-04-02T15:05:08;94094.31;;;6.26;100.00
21588;BME280;10956;48.878;13.316;2023-04-02T15:07:40;94110.97;;;6.20;100.00
21588;BME280;10956;48.878;13.316;2023-04-02T15:10:28;94122.09;;;5.93;100.00
21588;BME280;10956;48.878;13.316;2023-04-02T15:12:57;94109.03;;;5.65;100.00
21588;BME280;10956;48.878;13.316;2023-04-02T15:15:45;94130.38;;;5.28;100.00
21588;BME280;10956;48.878;13.316;2023-04-02T15:18:16;94136.34;;;5.12;100.00
21588;BME280;10956;48.878;13.316;2023-04-02T15:21:02;94129.59;;;4.99;100.00
21588;BME280;10956;48.878;13.316;2023-04-02T15:26:23;94136.25;;;4.67;100.00
21588;BME280;10956;48.878;13.316;2023-04-02T15:29:02;94145.13;;;4.54;100.00
21588;BME280;10956;48.878;13.316;2023-04-02T15:31:35;94144.78;;;4.62;100.00
21588;BME280;10956;48.878;13.316;2023-04-02T15:34:26;94148.97;;;4.63;100.00
21588;BME280;10956;48.878;13.316;2023-04-02T15:37:00;94155.31;;;4.67;100.00
21588;BME280;10956;48.878;13.316;2023-04-02T15:45:14;94149.00;;;4.92;100.00
21588;BME280;10956;48.878;13.316;2023-04-02T15:53:28;94170.38;;;4.89;100.00
21588;BME280;10956;48.878;13.316;2023-04-02T15:56:29;94172.09;;;4.71;100.00
21588;BME280;10956;48.878;13.316;2023-04-02T16:04:40;94191.31;;;4.30;100.00
21588;BME280;10956;48.878;13.316;2023-04-02T16:07:28;94199.03;;;4.37;100.00
21588;BME280;10956;48.878;13.316;2023-04-02T16:10:12;94194.38;;;4.27;100.00
21588;BME280;10956;48.878;13.316;2023-04-02T16:12:45;94195.16;;;4.28;100.00
21588;BME280;10956;48.878;13.316;2023-04-02T16:15:43;94203.66;;;4.35;100.00
21588;BME280;10956;48.878;13.316;2023-04-02T16:18:16;94202.19;;;4.39;100.00
21588;BME280;10956;48.878;13.316;2023-04-02T16:20:49;94217.16;;;4.55;100.00